createdAt,value
2019-04-04T00:02:01.718Z,18.57
2019-04-04T00:04:32.556Z,18.23
2019-04-04T00:07:05.846Z,19.97
2019-04-04T00:09:35.450Z,19.17
2019-04-04T00:12:06.128Z,18.90
2019-04-04T00:14:35.719Z,18.30
2019-04-04T00:17:04.985Z,18.80
2019-04-04T00:19:34.261Z,19.37
2019-04-04T00:22:04.948Z,19.23
2019-04-04T00:24:35.462Z,20.17
2019-04-04T00:27:04.726Z,19.98
2019-04-04T00:29:35.584Z,19.70
2019-04-04T00:32:05.216Z,21.90
2019-04-04T00:34:34.857Z,20.57
2019-04-04T00:37:05.231Z,21.97
2019-04-04T00:39:35.038Z,21.80
2019-04-04T00:42:04.292Z,20.60
2019-04-04T00:44:35.707Z,21.13
2019-04-04T00:47:05.672Z,22.10
2019-04-04T00:49:37.949Z,21.00
2019-04-04T00:52:10.084Z,23.50
2019-04-04T00:54:38.244Z,22.70
2019-04-04T00:57:09.390Z,23.73
2019-04-04T00:59:38.769Z,23.77
2019-04-04T01:02:09.885Z,22.40
2019-04-04T01:04:41.822Z,21.60
2019-04-04T01:07:13.222Z,21.57
2019-04-04T01:09:45.927Z,21.63
2019-04-04T01:12:15.955Z,21.00
2019-04-04T01:14:45.213Z,25.27
2019-04-04T01:17:15.693Z,24.20
2019-04-04T01:19:48.837Z,23.27
2019-04-04T01:22:18.591Z,23.60
2019-04-04T01:24:48.190Z,22.60
2019-04-04T01:27:17.802Z,22.23
2019-04-04T01:29:47.215Z,22.43
2019-04-04T01:32:17.097Z,22.43
2019-04-04T01:34:46.982Z,23.57
2019-04-04T01:37:16.650Z,22.80
2019-04-04T01:39:47.479Z,26.60
2019-04-04T01:42:17.504Z,24.43
2019-04-04T01:44:46.763Z,23.40
2019-04-04T01:47:16.959Z,25.17
2019-04-04T01:49:47.344Z,25.30
2019-04-04T01:52:16.978Z,25.70
2019-04-04T01:54:46.769Z,24.83
2019-04-04T01:57:16.329Z,25.17
2019-04-04T01:59:45.584Z,25.40
2019-04-04T02:02:17.660Z,24.03
2019-04-04T02:04:46.175Z,27.20
2019-04-04T02:07:16.437Z,24.70
2019-04-04T02:09:45.665Z,24.37
2019-04-04T02:12:15.265Z,25.10
2019-04-04T02:14:44.507Z,26.23
2019-04-04T02:17:13.774Z,27.55
2019-04-04T02:19:43.008Z,25.93
2019-04-04T02:22:12.303Z,25.67
2019-04-04T02:24:41.529Z,25.13
2019-04-04T02:27:10.807Z,26.67
2019-04-04T02:29:41.938Z,26.20
2019-04-04T02:32:14.516Z,26.65
2019-04-04T02:34:44.610Z,24.97
2019-04-04T02:37:13.852Z,25.93
2019-04-04T02:39:43.117Z,25.13
2019-04-04T02:42:12.368Z,26.53
2019-04-04T02:44:42.821Z,26.10
2019-04-04T02:47:12.159Z,25.83
2019-04-04T02:49:41.463Z,25.93
2019-04-04T02:52:13.287Z,25.17
2019-04-04T02:54:42.436Z,27.10
2019-04-04T02:57:11.738Z,27.83
2019-04-04T02:59:41.311Z,27.33
2019-04-04T03:02:10.921Z,26.73
2019-04-04T03:04:40.176Z,27.07
2019-04-04T03:07:09.752Z,26.43
2019-04-04T03:09:42.139Z,28.70
2019-04-04T03:12:09.964Z,26.37
2019-04-04T03:14:39.356Z,27.63
2019-04-04T03:17:09.331Z,28.97
2019-04-04T03:19:40.764Z,29.03
2019-04-04T03:22:10.260Z,28.03
2019-04-04T03:24:42.907Z,29.13
2019-04-04T03:27:11.144Z,31.73
2019-04-04T03:29:40.373Z,29.83
2019-04-04T03:32:14.415Z,26.63
2019-04-04T03:34:47.785Z,27.73
2019-04-04T03:37:12.370Z,26.27
2019-04-04T03:39:42.016Z,27.20
2019-04-04T03:42:11.322Z,26.10
2019-04-04T03:44:40.979Z,25.17
2019-04-04T03:47:11.264Z,25.47
2019-04-04T03:49:42.501Z,28.57
2019-04-04T03:52:11.788Z,26.83
2019-04-04T03:54:42.130Z,26.83
2019-04-04T03:57:12.578Z,30.20
2019-04-04T03:59:42.356Z,27.10
2019-04-04T04:02:12.165Z,27.40
2019-04-04T04:04:41.796Z,26.87
2019-04-04T04:07:13.832Z,25.30
2019-04-04T04:09:42.020Z,27.43
2019-04-04T04:12:12.670Z,27.50
2019-04-04T04:14:41.974Z,27.70
2019-04-04T04:17:12.656Z,29.43
2019-04-04T04:19:42.314Z,25.93
2019-04-04T04:22:13.046Z,26.70
2019-04-04T04:24:42.918Z,26.87
2019-04-04T04:27:15.578Z,26.23
2019-04-04T04:29:43.174Z,24.43
2019-04-04T04:32:12.412Z,24.20
2019-04-04T04:34:41.863Z,26.23
2019-04-04T04:37:11.126Z,25.60
2019-04-04T04:39:42.187Z,24.60
2019-04-04T04:42:11.811Z,25.20
2019-04-04T04:44:41.504Z,28.50
2019-04-04T04:47:11.104Z,25.70
2019-04-04T04:49:40.327Z,22.77
2019-04-04T04:52:09.955Z,22.47
2019-04-04T04:54:39.209Z,24.23
2019-04-04T04:57:08.452Z,23.73
2019-04-04T04:59:38.094Z,25.63
2019-04-04T05:02:07.524Z,23.10
2019-04-04T05:04:37.953Z,23.30
2019-04-04T05:07:08.123Z,24.20
2019-04-04T05:09:39.399Z,23.90
2019-04-04T05:12:09.314Z,23.10
2019-04-04T05:14:39.226Z,22.10
2019-04-04T05:17:10.123Z,23.43
2019-04-04T05:19:39.984Z,25.67
2019-04-04T05:22:09.774Z,24.70
2019-04-04T05:24:39.086Z,24.97
2019-04-04T05:27:08.295Z,25.03
2019-04-04T05:29:37.901Z,25.23
2019-04-04T05:32:07.134Z,23.03
2019-04-04T05:34:36.404Z,24.23
2019-04-04T05:37:07.377Z,25.90
2019-04-04T05:39:36.961Z,24.40
2019-04-04T05:42:06.608Z,24.27
2019-04-04T05:44:36.295Z,22.33
2019-04-04T05:47:05.940Z,22.87
2019-04-04T05:49:36.176Z,23.33
2019-04-04T05:52:08.824Z,24.47
2019-04-04T05:54:39.095Z,26.57
2019-04-04T05:57:08.617Z,23.67
2019-04-04T05:59:38.168Z,24.27
2019-04-04T06:02:11.009Z,22.77
2019-04-04T06:04:38.780Z,23.40
2019-04-04T06:07:08.003Z,21.50
2019-04-04T06:09:37.666Z,22.13
2019-04-04T06:12:07.278Z,22.07
2019-04-04T06:14:36.939Z,20.63
2019-04-04T06:17:07.175Z,20.93
2019-04-04T06:19:37.228Z,20.23
2019-04-04T06:22:07.582Z,20.00
2019-04-04T06:24:37.214Z,21.07
2019-04-04T06:27:07.101Z,20.60
2019-04-04T06:29:37.490Z,19.90
2019-04-04T06:32:07.038Z,21.03
2019-04-04T06:34:36.657Z,19.17
2019-04-04T06:37:06.133Z,22.27
2019-04-04T06:39:35.763Z,20.40
2019-04-04T06:42:05.375Z,20.97
2019-04-04T06:44:34.619Z,20.93
2019-04-04T06:47:03.864Z,20.33
2019-04-04T06:49:35.323Z,23.40
2019-04-04T06:52:04.418Z,20.50
2019-04-04T06:54:34.341Z,19.07
2019-04-04T06:57:04.821Z,19.50
2019-04-04T06:59:34.849Z,18.90
2019-04-04T07:02:05.315Z,18.83
2019-04-04T07:04:36.068Z,19.10
2019-04-04T07:07:06.059Z,18.73
2019-04-04T07:09:37.257Z,19.03
2019-04-04T07:12:07.495Z,19.80
2019-04-04T07:14:45.696Z,19.70
2019-04-04T07:17:08.817Z,19.87
2019-04-04T07:19:38.793Z,19.60
2019-04-04T07:22:08.051Z,20.17
2019-04-04T07:24:37.286Z,20.40
2019-04-04T07:27:06.934Z,19.10
2019-04-04T07:29:36.179Z,17.97
2019-04-04T07:32:07.192Z,17.63
2019-04-04T07:34:36.540Z,19.27
2019-04-04T07:37:05.773Z,19.10
2019-04-04T07:39:35.042Z,17.83
2019-04-04T07:42:04.597Z,17.70
2019-04-04T07:44:34.207Z,18.83
2019-04-04T07:47:03.464Z,17.63
2019-04-04T07:49:32.695Z,17.77
2019-04-04T07:52:02.375Z,19.83
2019-04-04T07:54:32.838Z,17.80
2019-04-04T07:57:02.894Z,19.77
2019-04-04T07:59:32.162Z,17.63
2019-04-04T08:02:01.780Z,17.37
2019-04-04T08:04:31.351Z,17.97
2019-04-04T08:07:00.598Z,18.00
2019-04-04T08:09:30.451Z,17.50
2019-04-04T08:12:01.164Z,18.33
2019-04-04T08:14:31.159Z,17.00
2019-04-04T08:17:00.383Z,17.20
2019-04-04T08:19:30.735Z,17.13
2019-04-04T08:22:00.296Z,17.77
2019-04-04T08:24:29.535Z,17.77
2019-04-04T08:26:58.749Z,16.10
2019-04-04T08:29:27.980Z,15.30
2019-04-04T08:31:57.237Z,16.50
2019-04-04T08:34:26.776Z,16.10
2019-04-04T08:36:56.328Z,16.03
2019-04-04T08:39:27.019Z,15.20
2019-04-04T08:41:56.626Z,14.90
2019-04-04T08:44:25.844Z,15.67
2019-04-04T08:46:55.889Z,16.60
2019-04-04T08:49:25.464Z,15.73
2019-04-04T08:51:55.250Z,15.33
2019-04-04T08:54:24.748Z,14.37
2019-04-04T08:56:54.392Z,13.93
2019-04-04T08:59:23.622Z,14.60
2019-04-04T09:01:53.190Z,15.80
2019-04-04T09:04:24.027Z,15.37
2019-04-04T09:06:53.707Z,17.00
2019-04-04T09:09:23.024Z,16.30
2019-04-04T09:11:52.341Z,16.97
2019-04-04T09:14:21.615Z,17.40
2019-04-04T09:16:51.141Z,16.43
2019-04-04T09:19:20.433Z,16.77
2019-04-04T09:21:49.678Z,17.10
2019-04-04T09:24:19.255Z,16.97
2019-04-04T09:26:49.351Z,17.63
2019-04-04T09:29:18.983Z,16.70
2019-04-04T09:31:48.638Z,17.63
2019-04-04T09:34:17.925Z,16.20
2019-04-04T09:36:47.240Z,15.80
2019-04-04T09:39:19.395Z,16.10
2019-04-04T09:41:48.931Z,16.13
2019-04-04T09:44:18.891Z,15.83
2019-04-04T09:46:48.508Z,16.73
2019-04-04T09:49:17.765Z,13.30
2019-04-04T09:51:47.027Z,14.53
2019-04-04T09:54:19.224Z,12.97
2019-04-04T09:56:47.960Z,15.15
2019-04-04T09:59:17.188Z,15.53
2019-04-04T10:01:49.070Z,27.07
2019-04-04T10:04:19.245Z,16.20
2019-04-04T10:06:48.514Z,15.73
2019-04-04T10:09:17.827Z,12.67
2019-04-04T10:11:47.123Z,19.57
2019-04-04T10:14:16.730Z,10.93
2019-04-04T10:16:46.784Z,12.37
2019-04-04T10:19:16.007Z,14.87
2019-04-04T10:21:46.689Z,14.53
2019-04-04T10:24:17.490Z,14.13
2019-04-04T10:26:46.721Z,24.00
2019-04-04T10:29:16.866Z,15.67
2019-04-04T10:31:46.099Z,25.40
2019-04-04T10:34:16.263Z,14.87
2019-04-04T10:36:46.797Z,11.40
2019-04-04T10:39:28.223Z,10.80
2019-04-04T10:41:46.995Z,24.43
2019-04-04T10:44:16.278Z,24.83
2019-04-04T10:46:46.281Z,9.97
2019-04-04T10:49:16.196Z,9.10
2019-04-04T10:51:45.453Z,10.03
2019-04-04T10:54:15.343Z,8.70
2019-04-04T10:56:45.489Z,9.50
2019-04-04T10:59:15.449Z,7.63
2019-04-04T11:01:44.663Z,7.37
2019-04-04T11:04:14.138Z,5.60
2019-04-04T11:06:43.355Z,4.60
2019-04-04T11:09:12.594Z,5.60
2019-04-04T11:11:42.272Z,4.70
2019-04-04T11:14:11.520Z,5.07
2019-04-04T11:16:41.131Z,5.00
2019-04-04T11:19:10.702Z,3.70
2019-04-04T11:21:40.296Z,5.50
2019-04-04T11:24:11.371Z,4.77
2019-04-04T11:26:40.943Z,6.43
2019-04-04T11:29:10.523Z,5.43
2019-04-04T11:31:39.769Z,5.30
2019-04-04T11:34:08.978Z,4.60
2019-04-04T11:36:38.587Z,4.80
2019-04-04T11:39:08.724Z,5.47
2019-04-04T11:41:37.992Z,6.07
2019-04-04T11:44:07.218Z,5.90
2019-04-04T11:46:36.845Z,4.27
2019-04-04T11:49:06.077Z,4.80
2019-04-04T11:51:35.696Z,6.53
2019-04-04T11:54:05.509Z,6.40
2019-04-04T11:56:35.122Z,5.73
2019-04-04T11:59:04.353Z,6.33
2019-04-04T12:01:35.602Z,4.17
2019-04-04T12:04:04.857Z,4.83
2019-04-04T12:06:34.468Z,4.57
2019-04-04T12:09:03.974Z,5.67
2019-04-04T12:11:33.209Z,5.23
2019-04-04T12:14:02.444Z,5.70
2019-04-04T12:16:32.825Z,5.42
2019-04-04T12:19:02.684Z,5.23
2019-04-04T12:21:31.906Z,4.00
2019-04-04T12:24:01.263Z,4.10
2019-04-04T12:26:31.425Z,4.90
2019-04-04T12:29:00.648Z,4.53
2019-04-04T12:31:29.893Z,5.00
2019-04-04T12:34:01.952Z,4.20
2019-04-04T12:36:30.496Z,4.17
2019-04-04T12:39:00.075Z,4.13
2019-04-04T12:41:29.784Z,4.47
2019-04-04T12:44:00.122Z,4.10
2019-04-04T12:46:30.165Z,4.40
2019-04-04T12:48:59.677Z,4.10
2019-04-04T12:51:29.046Z,4.33
2019-04-04T12:53:58.286Z,5.17
2019-04-04T12:56:27.563Z,3.93
2019-04-04T12:58:56.778Z,4.20
2019-04-04T13:01:27.123Z,3.87
2019-04-04T13:03:56.402Z,3.87
2019-04-04T13:06:25.791Z,4.42
2019-04-04T13:08:55.408Z,4.77
2019-04-04T13:11:25.019Z,4.05
2019-04-04T13:13:54.625Z,3.07
2019-04-04T13:16:24.246Z,2.30
2019-04-04T13:18:53.485Z,2.27
2019-04-04T13:21:22.727Z,3.03
2019-04-04T13:23:52.358Z,2.87
2019-04-04T13:26:23.225Z,3.97
2019-04-04T13:28:53.452Z,2.83
2019-04-04T13:31:23.329Z,3.75
2019-04-04T13:33:53.600Z,2.73
2019-04-04T13:36:22.851Z,4.00
2019-04-04T13:38:54.913Z,3.60
2019-04-04T13:41:23.120Z,3.00
2019-04-04T13:43:53.604Z,4.27
2019-04-04T13:46:25.930Z,3.90
2019-04-04T13:48:54.417Z,2.60
2019-04-04T13:51:25.549Z,4.05
2019-04-04T13:53:57.112Z,3.30
2019-04-04T13:56:29.136Z,3.90
2019-04-04T13:59:01.148Z,3.60
2019-04-04T14:01:28.379Z,3.87
2019-04-04T14:03:57.941Z,3.20
2019-04-04T14:06:27.184Z,8.73
2019-04-04T14:08:56.421Z,4.33
2019-04-04T14:11:25.667Z,12.67
2019-04-04T14:13:55.548Z,10.80
2019-04-04T14:16:24.956Z,9.00
2019-04-04T14:18:55.401Z,7.70
2019-04-04T14:21:24.654Z,7.27
2019-04-04T14:23:57.112Z,5.70
2019-04-04T14:26:26.428Z,5.87
2019-04-04T14:28:56.029Z,4.83
2019-04-04T14:31:25.264Z,4.40
2019-04-04T14:33:54.523Z,3.77
2019-04-04T14:36:25.872Z,4.57
2019-04-04T14:38:55.133Z,3.47
2019-04-04T14:41:24.781Z,5.20
2019-04-04T14:43:54.547Z,2.80
2019-04-04T14:46:23.869Z,3.07
2019-04-04T14:48:53.863Z,9.50
2019-04-04T14:51:23.103Z,3.47
2019-04-04T14:53:52.318Z,3.60
2019-04-04T14:56:21.601Z,3.10
2019-04-04T14:58:50.851Z,3.10
2019-04-04T15:01:20.503Z,3.03
2019-04-04T15:03:51.240Z,3.23
2019-04-04T15:06:20.867Z,2.87
2019-04-04T15:08:50.859Z,2.57
2019-04-04T15:11:24.322Z,2.60
2019-04-04T15:13:51.441Z,3.60
2019-04-04T15:16:21.022Z,2.92
2019-04-04T15:18:50.660Z,3.37
2019-04-04T15:21:20.281Z,2.53
2019-04-04T15:23:51.194Z,3.50
2019-04-04T15:26:20.875Z,3.17
2019-04-04T15:28:50.133Z,6.80
2019-04-04T15:31:20.638Z,3.03
2019-04-04T15:33:51.743Z,3.33
2019-04-04T15:36:21.282Z,2.80
2019-04-04T15:38:50.531Z,3.37
2019-04-04T15:41:19.795Z,5.80
2019-04-04T15:43:49.863Z,4.83
2019-04-04T15:46:19.121Z,4.57
2019-04-04T15:48:49.319Z,5.43
2019-04-04T15:51:18.835Z,5.67
2019-04-04T15:53:50.233Z,4.10
2019-04-04T15:56:21.299Z,4.13
2019-04-04T15:58:50.537Z,3.87
2019-04-04T16:01:20.335Z,3.60
2019-04-04T16:03:49.969Z,3.57
2019-04-04T16:06:19.247Z,4.20
2019-04-04T16:08:48.799Z,4.10
2019-04-04T16:11:18.422Z,4.00
2019-04-04T16:13:48.067Z,4.70
2019-04-04T16:16:17.293Z,4.40
2019-04-04T16:18:46.609Z,3.67
2019-04-04T16:21:17.307Z,4.60
2019-04-04T16:23:46.983Z,4.57
2019-04-04T16:26:16.237Z,4.43
2019-04-04T16:28:45.823Z,5.17
2019-04-04T16:31:15.348Z,5.50
2019-04-04T16:33:44.618Z,3.90
2019-04-04T16:36:13.860Z,3.47
2019-04-04T16:38:43.090Z,3.47
2019-04-04T16:41:14.541Z,3.73
2019-04-04T16:43:43.350Z,4.17
2019-04-04T16:46:12.838Z,5.72
2019-04-04T16:48:42.097Z,4.33
2019-04-04T16:51:12.083Z,4.80
2019-04-04T16:53:41.783Z,5.47
2019-04-04T16:56:11.330Z,4.10
2019-04-04T16:58:40.562Z,5.27
2019-04-04T17:01:10.226Z,6.60
2019-04-04T17:03:39.592Z,5.97
2019-04-04T17:06:08.827Z,5.10
2019-04-04T17:08:38.116Z,9.03
2019-04-04T17:11:07.702Z,5.50
2019-04-04T17:13:36.941Z,5.47
2019-04-04T17:16:06.373Z,7.10
2019-04-04T17:18:35.602Z,5.20
2019-04-04T17:21:05.146Z,4.87
2019-04-04T17:23:34.516Z,6.87
2019-04-04T17:26:04.233Z,5.13
2019-04-04T17:28:34.321Z,5.43
2019-04-04T17:31:03.632Z,7.43
2019-04-04T17:33:34.540Z,7.10
2019-04-04T17:36:03.913Z,6.33
2019-04-04T17:38:33.534Z,5.77
2019-04-04T17:41:03.200Z,5.70
2019-04-04T17:43:32.481Z,7.43
2019-04-04T17:46:02.135Z,6.20
2019-04-04T17:48:32.935Z,5.90
2019-04-04T17:51:03.151Z,6.90
2019-04-04T17:53:32.441Z,6.40
2019-04-04T17:56:01.895Z,6.80
2019-04-04T17:58:31.229Z,6.03
2019-04-04T18:01:01.631Z,6.70
2019-04-04T18:03:31.261Z,5.67
2019-04-04T18:06:00.878Z,5.90
2019-04-04T18:08:30.477Z,5.40
2019-04-04T18:10:59.759Z,5.57
2019-04-04T18:13:32.073Z,5.57
2019-04-04T18:16:01.103Z,6.08
2019-04-04T18:18:30.332Z,6.50
2019-04-04T18:21:01.055Z,6.47
2019-04-04T18:23:30.306Z,6.83
2019-04-04T18:25:59.880Z,7.17
2019-04-04T18:28:29.123Z,6.80
2019-04-04T18:30:59.327Z,6.63
2019-04-04T18:33:28.843Z,6.50
2019-04-04T18:35:58.081Z,6.50
2019-04-04T18:38:27.674Z,7.63
2019-04-04T18:40:57.422Z,6.90
2019-04-04T18:43:26.840Z,7.10
2019-04-04T18:45:56.125Z,8.97
2019-04-04T18:48:25.499Z,7.80
2019-04-04T18:50:54.828Z,7.50
2019-04-04T18:53:24.613Z,6.60
2019-04-04T18:55:53.848Z,8.43
2019-04-04T18:58:24.604Z,6.80
2019-04-04T19:00:53.885Z,7.60
2019-04-04T19:03:24.322Z,8.13
2019-04-04T19:05:53.702Z,7.13
2019-04-04T19:08:23.037Z,7.70
2019-04-04T19:10:52.647Z,7.70
2019-04-04T19:13:22.555Z,8.37
2019-04-04T19:15:52.563Z,8.33
2019-04-04T19:18:21.965Z,8.80
2019-04-04T19:20:51.336Z,8.63
2019-04-04T19:23:20.582Z,7.93
2019-04-04T19:25:50.253Z,8.17
2019-04-04T19:28:19.817Z,8.10
2019-04-04T19:30:49.142Z,7.83
2019-04-04T19:33:19.744Z,7.90
2019-04-04T19:35:49.011Z,8.40
2019-04-04T19:38:18.566Z,7.50
2019-04-04T19:40:48.185Z,8.57
2019-04-04T19:43:18.545Z,9.90
2019-04-04T19:45:48.267Z,8.80
2019-04-04T19:48:17.498Z,7.30
2019-04-04T19:50:48.357Z,7.13
2019-04-04T19:53:19.780Z,7.50
2019-04-04T19:55:49.023Z,6.40
2019-04-04T19:58:18.698Z,7.60
2019-04-04T20:00:47.972Z,7.07
2019-04-04T20:03:17.605Z,6.70
2019-04-04T20:05:47.248Z,6.67
2019-04-04T20:08:16.501Z,6.20
2019-04-04T20:10:46.262Z,6.40
2019-04-04T20:13:16.538Z,6.57
2019-04-04T20:15:45.802Z,6.30
2019-04-04T20:18:15.366Z,6.57
2019-04-04T20:20:45.630Z,7.33
2019-04-04T20:23:15.191Z,6.83
2019-04-04T20:25:44.514Z,7.13
2019-04-04T20:28:13.764Z,6.70
2019-04-04T20:30:42.998Z,6.40
2019-04-04T20:33:12.533Z,7.13
2019-04-04T20:35:41.833Z,7.27
2019-04-04T20:38:12.927Z,7.00
2019-04-04T20:40:42.143Z,6.47
2019-04-04T20:43:11.385Z,7.63
2019-04-04T20:45:40.980Z,6.60
2019-04-04T20:48:12.408Z,6.70
2019-04-04T20:50:42.003Z,6.97
2019-04-04T20:53:11.279Z,6.57
2019-04-04T20:55:41.570Z,7.20
2019-04-04T20:58:11.564Z,7.60
2019-04-04T21:00:41.628Z,5.90
2019-04-04T21:03:11.958Z,6.67
2019-04-04T21:05:41.214Z,6.77
2019-04-04T21:08:11.107Z,6.97
2019-04-04T21:10:40.724Z,7.23
2019-04-04T21:13:10.611Z,7.47
2019-04-04T21:15:39.917Z,7.47
2019-04-04T21:18:09.589Z,7.20
2019-04-04T21:20:39.168Z,7.27
2019-04-04T21:23:08.824Z,7.63
2019-04-04T21:25:38.423Z,7.60
2019-04-04T21:28:07.665Z,6.57
2019-04-04T21:30:37.312Z,7.07
2019-04-04T21:33:06.595Z,5.40
2019-04-04T21:35:35.839Z,6.67
2019-04-04T21:38:05.116Z,6.50
2019-04-04T21:40:34.380Z,6.13
2019-04-04T21:43:03.623Z,6.33
2019-04-04T21:45:33.210Z,6.10
2019-04-04T21:48:02.535Z,6.50
2019-04-04T21:50:31.763Z,6.03
2019-04-04T21:53:01.426Z,7.20
2019-04-04T21:55:32.654Z,6.40
2019-04-04T21:58:02.158Z,6.93
2019-04-04T22:00:41.426Z,6.23
2019-04-04T22:03:11.094Z,6.90
2019-04-04T22:05:40.371Z,5.97
2019-04-04T22:08:10.126Z,6.37
2019-04-04T22:10:39.393Z,7.40
2019-04-04T22:13:09.870Z,7.23
2019-04-04T22:15:39.469Z,7.00
2019-04-04T22:18:08.724Z,7.70
2019-04-04T22:20:38.546Z,6.78
2019-04-04T22:23:07.835Z,7.67
2019-04-04T22:25:37.120Z,7.50
2019-04-04T22:28:06.374Z,8.30
2019-04-04T22:30:36.631Z,7.08
2019-04-04T22:33:06.211Z,6.73
2019-04-04T22:35:35.462Z,7.50
2019-04-04T22:38:04.714Z,6.47
2019-04-04T22:40:35.051Z,6.50
2019-04-04T22:43:04.293Z,7.50
2019-04-04T22:45:34.577Z,7.97
2019-04-04T22:48:05.517Z,8.97
2019-04-04T22:50:35.137Z,8.30
2019-04-04T22:53:04.421Z,7.50
2019-04-04T22:55:34.036Z,8.43
2019-04-04T22:58:03.270Z,8.63
2019-04-04T23:00:32.590Z,8.07
2019-04-04T23:03:03.939Z,9.50
2019-04-04T23:05:33.174Z,9.60
2019-04-04T23:08:02.493Z,8.67
2019-04-04T23:10:32.092Z,9.20
2019-04-04T23:13:01.513Z,8.50
2019-04-04T23:15:30.735Z,9.27
2019-04-04T23:18:00.118Z,10.20
2019-04-04T23:20:29.364Z,10.70
2019-04-04T23:23:01.055Z,10.13
2019-04-04T23:25:30.595Z,10.43
2019-04-04T23:28:01.527Z,9.43
2019-04-04T23:30:30.760Z,11.20
2019-04-04T23:33:00.595Z,13.60
2019-04-04T23:35:30.226Z,14.40
2019-04-04T23:37:59.919Z,14.90
2019-04-04T23:40:29.566Z,15.60
2019-04-04T23:43:00.253Z,16.93
2019-04-04T23:45:30.144Z,16.83
2019-04-04T23:47:59.716Z,14.97
2019-04-04T23:50:30.538Z,16.73
2019-04-04T23:52:59.782Z,18.13
2019-04-04T23:55:29.062Z,16.77
2019-04-04T23:57:58.334Z,20.03
